sensor_id;sensor_type;location;lat;lon;timestamp;P1;durP1;ratioP1;P2;durP2;ratioP2
33066;SDS011;19428;49.024;8.366;2022-08-21T00:01:14;4.43;;;4.32;;
33066;SDS011;19428;49.024;8.366;2022-08-21T00:03:43;5.47;;;5.38;;
33066;SDS011;19428;49.024;8.366;2022-08-21T00:06:09;5.25;;;5.15;;
33066;SDS011;19428;49.024;8.366;2022-08-21T00:08:35;6.22;;;6.10;;
33066;SDS011;19428;49.024;8.366;2022-08-21T00:11:01;5.60;;;5.50;;
33066;SDS011;19428;49.024;8.366;2022-08-21T00:13:26;6.35;;;6.22;;
33066;SDS011;19428;49.024;8.366;2022-08-21T00:15:52;6.68;;;6.47;;
33066;SDS011;19428;49.024;8.366;2022-08-21T00:18:18;7.85;;;7.65;;
33066;SDS011;19428;49.024;8.366;2022-08-21T00:20:44;8.75;;;8.45;;
33066;SDS011;19428;49.024;8.366;2022-08-21T00:23:10;10.00;;;9.73;;
33066;SDS011;19428;49.024;8.366;2022-08-21T00:25:37;10.88;;;10.55;;
33066;SDS011;19428;49.024;8.366;2022-08-21T00:28:03;13.95;;;13.15;;
33066;SDS011;19428;49.024;8.366;2022-08-21T00:30:31;12.57;;;12.18;;
33066;SDS011;19428;49.024;8.366;2022-08-21T00:32:58;13.10;;;12.68;;
33066;SDS011;19428;49.024;8.366;2022-08-21T00:35:26;12.02;;;11.68;;
33066;SDS011;19428;49.024;8.366;2022-08-21T00:37:57;12.45;;;12.07;;
33066;SDS011;19428;49.024;8.366;2022-08-21T00:40:30;14.50;;;14.02;;
33066;SDS011;19428;49.024;8.366;2022-08-21T00:43:05;13.25;;;12.82;;
33066;SDS011;19428;49.024;8.366;2022-08-21T00:45:32;13.10;;;12.68;;
33066;SDS011;19428;49.024;8.366;2022-08-21T00:47:59;15.05;;;14.57;;
33066;SDS011;19428;49.024;8.366;2022-08-21T00:50:26;17.20;;;16.58;;
33066;SDS011;19428;49.024;8.366;2022-08-21T00:52:54;18.85;;;18.17;;
33066;SDS011;19428;49.024;8.366;2022-08-21T00:55:20;20.92;;;20.15;;
33066;SDS011;19428;49.024;8.366;2022-08-21T00:57:49;18.67;;;18.00;;
33066;SDS011;19428;49.024;8.366;2022-08-21T01:00:20;19.63;;;18.90;;
33066;SDS011;19428;49.024;8.366;2022-08-21T01:02:49;20.55;;;19.80;;
33066;SDS011;19428;49.024;8.366;2022-08-21T01:05:14;20.88;;;20.13;;
33066;SDS011;19428;49.024;8.366;2022-08-21T01:07:41;18.23;;;17.58;;
33066;SDS011;19428;49.024;8.366;2022-08-21T01:10:07;20.58;;;19.83;;
33066;SDS011;19428;49.024;8.366;2022-08-21T01:12:34;18.20;;;17.38;;
33066;SDS011;19428;49.024;8.366;2022-08-21T01:15:01;17.95;;;17.30;;
33066;SDS011;19428;49.024;8.366;2022-08-21T01:17:28;17.88;;;17.25;;
33066;SDS011;19428;49.024;8.366;2022-08-21T01:19:57;16.73;;;16.17;;
33066;SDS011;19428;49.024;8.366;2022-08-21T01:22:23;19.17;;;18.48;;
33066;SDS011;19428;49.024;8.366;2022-08-21T01:24:49;19.60;;;18.90;;
33066;SDS011;19428;49.024;8.366;2022-08-21T01:27:15;21.45;;;20.65;;
33066;SDS011;19428;49.024;8.366;2022-08-21T01:32:21;21.10;;;20.33;;
33066;SDS011;19428;49.024;8.366;2022-08-21T01:34:48;22.17;;;21.33;;
33066;SDS011;19428;49.024;8.366;2022-08-21T01:37:15;23.88;;;22.92;;
33066;SDS011;19428;49.024;8.366;2022-08-21T01:39:41;20.65;;;19.88;;
33066;SDS011;19428;49.024;8.366;2022-08-21T01:42:08;22.02;;;21.20;;
33066;SDS011;19428;49.024;8.366;2022-08-21T01:44:34;21.15;;;20.35;;
33066;SDS011;19428;49.024;8.366;2022-08-21T01:47:03;24.90;;;23.95;;
33066;SDS011;19428;49.024;8.366;2022-08-21T01:49:31;22.38;;;21.52;;
33066;SDS011;19428;49.024;8.366;2022-08-21T01:51:56;24.75;;;23.75;;
33066;SDS011;19428;49.024;8.366;2022-08-21T01:54:22;22.77;;;21.88;;
33066;SDS011;19428;49.024;8.366;2022-08-21T01:56:48;23.55;;;22.65;;
33066;SDS011;19428;49.024;8.366;2022-08-21T01:59:16;22.42;;;21.63;;
33066;SDS011;19428;49.024;8.366;2022-08-21T02:01:42;23.10;;;22.20;;
33066;SDS011;19428;49.024;8.366;2022-08-21T02:04:08;23.48;;;22.60;;
33066;SDS011;19428;49.024;8.366;2022-08-21T02:06:34;22.45;;;21.65;;
33066;SDS011;19428;49.024;8.366;2022-08-21T02:09:01;24.80;;;23.88;;
33066;SDS011;19428;49.024;8.366;2022-08-21T02:11:31;24.23;;;23.33;;
33066;SDS011;19428;49.024;8.366;2022-08-21T02:13:57;24.42;;;23.52;;
33066;SDS011;19428;49.024;8.366;2022-08-21T02:16:23;24.73;;;23.83;;
33066;SDS011;19428;49.024;8.366;2022-08-21T02:18:49;24.60;;;23.67;;
33066;SDS011;19428;49.024;8.366;2022-08-21T02:21:15;25.30;;;24.35;;
33066;SDS011;19428;49.024;8.366;2022-08-21T02:23:40;23.92;;;23.05;;
33066;SDS011;19428;49.024;8.366;2022-08-21T02:26:06;23.05;;;22.20;;
33066;SDS011;19428;49.024;8.366;2022-08-21T02:28:32;23.63;;;22.77;;
33066;SDS011;19428;49.024;8.366;2022-08-21T02:30:59;25.33;;;24.38;;
33066;SDS011;19428;49.024;8.366;2022-08-21T02:33:26;25.17;;;24.25;;
33066;SDS011;19428;49.024;8.366;2022-08-21T02:35:52;25.13;;;24.20;;
33066;SDS011;19428;49.024;8.366;2022-08-21T02:38:23;23.55;;;22.73;;
33066;SDS011;19428;49.024;8.366;2022-08-21T02:40:51;21.95;;;21.15;;
33066;SDS011;19428;49.024;8.366;2022-08-21T02:43:18;23.10;;;22.27;;
33066;SDS011;19428;49.024;8.366;2022-08-21T02:45:45;23.83;;;22.95;;
33066;SDS011;19428;49.024;8.366;2022-08-21T02:48:13;23.27;;;22.45;;
33066;SDS011;19428;49.024;8.366;2022-08-21T02:50:42;23.42;;;22.58;;
33066;SDS011;19428;49.024;8.366;2022-08-21T02:53:10;23.80;;;22.95;;
33066;SDS011;19428;49.024;8.366;2022-08-21T02:55:41;24.42;;;23.00;;
33066;SDS011;19428;49.024;8.366;2022-08-21T02:58:09;24.35;;;23.45;;
33066;SDS011;19428;49.024;8.366;2022-08-21T03:00:36;23.70;;;22.80;;
33066;SDS011;19428;49.024;8.366;2022-08-21T03:03:02;23.15;;;22.35;;
33066;SDS011;19428;49.024;8.366;2022-08-21T03:05:29;24.05;;;23.15;;
33066;SDS011;19428;49.024;8.366;2022-08-21T03:07:59;23.48;;;22.63;;
33066;SDS011;19428;49.024;8.366;2022-08-21T03:10:26;23.00;;;22.20;;
33066;SDS011;19428;49.024;8.366;2022-08-21T03:12:52;22.08;;;21.27;;
33066;SDS011;19428;49.024;8.366;2022-08-21T03:15:20;22.52;;;21.73;;
33066;SDS011;19428;49.024;8.366;2022-08-21T03:17:51;21.85;;;21.05;;
33066;SDS011;19428;49.024;8.366;2022-08-21T03:20:20;23.00;;;22.17;;
33066;SDS011;19428;49.024;8.366;2022-08-21T03:22:48;21.73;;;20.95;;
33066;SDS011;19428;49.024;8.366;2022-08-21T03:25:15;23.58;;;22.73;;
33066;SDS011;19428;49.024;8.366;2022-08-21T03:27:42;23.92;;;23.05;;
33066;SDS011;19428;49.024;8.366;2022-08-21T03:30:07;26.50;;;25.52;;
33066;SDS011;19428;49.024;8.366;2022-08-21T03:32:34;28.92;;;27.83;;
33066;SDS011;19428;49.024;8.366;2022-08-21T03:35:01;29.50;;;28.40;;
33066;SDS011;19428;49.024;8.366;2022-08-21T03:37:27;31.50;;;30.35;;
33066;SDS011;19428;49.024;8.366;2022-08-21T03:39:53;29.10;;;28.00;;
33066;SDS011;19428;49.024;8.366;2022-08-21T03:42:19;28.33;;;27.25;;
33066;SDS011;19428;49.024;8.366;2022-08-21T03:44:46;27.92;;;26.92;;
33066;SDS011;19428;49.024;8.366;2022-08-21T03:47:11;32.35;;;31.08;;
33066;SDS011;19428;49.024;8.366;2022-08-21T03:49:37;31.05;;;29.85;;
33066;SDS011;19428;49.024;8.366;2022-08-21T03:52:03;31.40;;;30.25;;
33066;SDS011;19428;49.024;8.366;2022-08-21T03:54:29;30.58;;;29.42;;
33066;SDS011;19428;49.024;8.366;2022-08-21T03:56:55;35.63;;;34.25;;
33066;SDS011;19428;49.024;8.366;2022-08-21T03:59:21;34.75;;;33.42;;
33066;SDS011;19428;49.024;8.366;2022-08-21T04:01:52;34.70;;;33.38;;
33066;SDS011;19428;49.024;8.366;2022-08-21T04:06:50;24.45;;;23.55;;
33066;SDS011;19428;49.024;8.366;2022-08-21T04:09:16;32.17;;;30.92;;
33066;SDS011;19428;49.024;8.366;2022-08-21T04:11:42;33.88;;;32.58;;
33066;SDS011;19428;49.024;8.366;2022-08-21T04:14:08;36.17;;;34.75;;
33066;SDS011;19428;49.024;8.366;2022-08-21T04:16:33;36.70;;;35.28;;
33066;SDS011;19428;49.024;8.366;2022-08-21T04:18:59;34.22;;;32.90;;
33066;SDS011;19428;49.024;8.366;2022-08-21T04:21:25;35.40;;;34.00;;
33066;SDS011;19428;49.024;8.366;2022-08-21T04:23:50;37.63;;;36.13;;
33066;SDS011;19428;49.024;8.366;2022-08-21T04:26:18;35.95;;;34.55;;
33066;SDS011;19428;49.024;8.366;2022-08-21T04:28:44;36.22;;;34.80;;
33066;SDS011;19428;49.024;8.366;2022-08-21T04:31:09;39.60;;;38.03;;
33066;SDS011;19428;49.024;8.366;2022-08-21T04:33:35;38.72;;;36.92;;
33066;SDS011;19428;49.024;8.366;2022-08-21T04:36:01;37.35;;;35.90;;
33066;SDS011;19428;49.024;8.366;2022-08-21T04:38:27;36.42;;;35.00;;
33066;SDS011;19428;49.024;8.366;2022-08-21T04:40:53;34.13;;;32.83;;
33066;SDS011;19428;49.024;8.366;2022-08-21T04:43:19;37.08;;;35.63;;
33066;SDS011;19428;49.024;8.366;2022-08-21T04:45:46;36.80;;;35.33;;
33066;SDS011;19428;49.024;8.366;2022-08-21T04:48:14;35.50;;;34.13;;
33066;SDS011;19428;49.024;8.366;2022-08-21T04:53:31;31.85;;;30.65;;
33066;SDS011;19428;49.024;8.366;2022-08-21T04:56:06;33.42;;;32.15;;
33066;SDS011;19428;49.024;8.366;2022-08-21T04:58:35;33.05;;;31.77;;
33066;SDS011;19428;49.024;8.366;2022-08-21T05:01:02;31.73;;;30.50;;
33066;SDS011;19428;49.024;8.366;2022-08-21T05:03:29;34.65;;;33.28;;
33066;SDS011;19428;49.024;8.366;2022-08-21T05:05:58;26.35;;;25.38;;
33066;SDS011;19428;49.024;8.366;2022-08-21T05:08:24;28.67;;;27.58;;
33066;SDS011;19428;49.024;8.366;2022-08-21T05:10:52;25.42;;;24.50;;
33066;SDS011;19428;49.024;8.366;2022-08-21T05:13:19;25.58;;;24.65;;
33066;SDS011;19428;49.024;8.366;2022-08-21T05:15:45;22.60;;;21.80;;
33066;SDS011;19428;49.024;8.366;2022-08-21T05:18:10;22.65;;;21.85;;
33066;SDS011;19428;49.024;8.366;2022-08-21T05:20:36;24.23;;;22.98;;
33066;SDS011;19428;49.024;8.366;2022-08-21T05:23:06;23.52;;;22.67;;
33066;SDS011;19428;49.024;8.366;2022-08-21T05:25:33;22.33;;;21.55;;
33066;SDS011;19428;49.024;8.366;2022-08-21T05:27:59;23.08;;;22.27;;
33066;SDS011;19428;49.024;8.366;2022-08-21T05:30:24;22.40;;;21.60;;
33066;SDS011;19428;49.024;8.366;2022-08-21T05:32:55;23.08;;;22.27;;
33066;SDS011;19428;49.024;8.366;2022-08-21T05:35:21;22.70;;;21.80;;
33066;SDS011;19428;49.024;8.366;2022-08-21T05:37:47;22.25;;;21.45;;
33066;SDS011;19428;49.024;8.366;2022-08-21T05:40:13;23.83;;;22.98;;
33066;SDS011;19428;49.024;8.366;2022-08-21T05:42:39;22.92;;;22.10;;
33066;SDS011;19428;49.024;8.366;2022-08-21T05:45:04;21.92;;;21.17;;
33066;SDS011;19428;49.024;8.366;2022-08-21T05:47:30;24.23;;;22.98;;
33066;SDS011;19428;49.024;8.366;2022-08-21T05:49:56;24.25;;;23.25;;
33066;SDS011;19428;49.024;8.366;2022-08-21T05:52:22;25.15;;;24.25;;
33066;SDS011;19428;49.024;8.366;2022-08-21T05:54:48;22.70;;;21.90;;
33066;SDS011;19428;49.024;8.366;2022-08-21T05:57:14;14.60;;;14.13;;
33066;SDS011;19428;49.024;8.366;2022-08-21T05:59:40;7.85;;;7.65;;
33066;SDS011;19428;49.024;8.366;2022-08-21T06:02:06;4.93;;;4.82;;
33066;SDS011;19428;49.024;8.366;2022-08-21T06:04:36;3.33;;;3.33;;
33066;SDS011;19428;49.024;8.366;2022-08-21T06:07:05;3.05;;;3.05;;
33066;SDS011;19428;49.024;8.366;2022-08-21T06:09:32;3.15;;;3.15;;
33066;SDS011;19428;49.024;8.366;2022-08-21T06:12:03;3.13;;;3.13;;
33066;SDS011;19428;49.024;8.366;2022-08-21T06:14:29;3.40;;;3.35;;
33066;SDS011;19428;49.024;8.366;2022-08-21T06:17:00;3.58;;;3.47;;
33066;SDS011;19428;49.024;8.366;2022-08-21T06:19:28;3.80;;;3.70;;
33066;SDS011;19428;49.024;8.366;2022-08-21T06:21:53;3.70;;;3.60;;
33066;SDS011;19428;49.024;8.366;2022-08-21T06:24:19;4.15;;;4.05;;
33066;SDS011;19428;49.024;8.366;2022-08-21T06:26:44;4.75;;;4.55;;
33066;SDS011;19428;49.024;8.366;2022-08-21T06:29:12;4.28;;;4.18;;
33066;SDS011;19428;49.024;8.366;2022-08-21T06:31:41;5.63;;;5.53;;
33066;SDS011;19428;49.024;8.366;2022-08-21T06:34:07;6.70;;;6.40;;
33066;SDS011;19428;49.024;8.366;2022-08-21T06:36:33;4.70;;;4.60;;
33066;SDS011;19428;49.024;8.366;2022-08-21T06:38:58;4.65;;;4.55;;
33066;SDS011;19428;49.024;8.366;2022-08-21T06:41:24;5.28;;;5.18;;
33066;SDS011;19428;49.024;8.366;2022-08-21T06:43:50;5.03;;;4.93;;
33066;SDS011;19428;49.024;8.366;2022-08-21T06:46:16;4.95;;;4.85;;
33066;SDS011;19428;49.024;8.366;2022-08-21T06:48:41;5.50;;;5.40;;
33066;SDS011;19428;49.024;8.366;2022-08-21T06:51:07;6.35;;;6.15;;
33066;SDS011;19428;49.024;8.366;2022-08-21T06:53:33;5.35;;;5.25;;
33066;SDS011;19428;49.024;8.366;2022-08-21T06:55:59;5.20;;;5.00;;
33066;SDS011;19428;49.024;8.366;2022-08-21T06:58:24;4.97;;;4.88;;
33066;SDS011;19428;49.024;8.366;2022-08-21T07:00:50;4.72;;;4.63;;
33066;SDS011;19428;49.024;8.366;2022-08-21T07:03:27;4.90;;;4.80;;
33066;SDS011;19428;49.024;8.366;2022-08-21T07:05:54;4.57;;;4.47;;
33066;SDS011;19428;49.024;8.366;2022-08-21T07:08:21;5.18;;;4.97;;
33066;SDS011;19428;49.024;8.366;2022-08-21T07:10:47;4.35;;;4.25;;
33066;SDS011;19428;49.024;8.366;2022-08-21T07:13:14;4.45;;;4.35;;
33066;SDS011;19428;49.024;8.366;2022-08-21T07:15:40;4.10;;;4.00;;
33066;SDS011;19428;49.024;8.366;2022-08-21T07:18:05;4.07;;;3.97;;
33066;SDS011;19428;49.024;8.366;2022-08-21T07:20:32;4.13;;;4.03;;
33066;SDS011;19428;49.024;8.366;2022-08-21T07:22:59;4.35;;;4.25;;
33066;SDS011;19428;49.024;8.366;2022-08-21T07:25:27;4.28;;;4.18;;
33066;SDS011;19428;49.024;8.366;2022-08-21T07:27:52;4.70;;;4.60;;
33066;SDS011;19428;49.024;8.366;2022-08-21T07:30:19;7.22;;;7.03;;
33066;SDS011;19428;49.024;8.366;2022-08-21T07:32:44;8.43;;;8.23;;
33066;SDS011;19428;49.024;8.366;2022-08-21T07:35:10;6.53;;;6.22;;
33066;SDS011;19428;49.024;8.366;2022-08-21T07:37:36;4.90;;;4.80;;
33066;SDS011;19428;49.024;8.366;2022-08-21T07:40:02;4.97;;;4.88;;
33066;SDS011;19428;49.024;8.366;2022-08-21T07:42:28;4.90;;;4.80;;
33066;SDS011;19428;49.024;8.366;2022-08-21T07:44:55;5.35;;;5.25;;
33066;SDS011;19428;49.024;8.366;2022-08-21T07:47:20;5.68;;;5.57;;
33066;SDS011;19428;49.024;8.366;2022-08-21T07:49:46;30.23;;;29.13;;
33066;SDS011;19428;49.024;8.366;2022-08-21T07:52:11;22.02;;;21.23;;
33066;SDS011;19428;49.024;8.366;2022-08-21T07:54:37;25.33;;;24.42;;
33066;SDS011;19428;49.024;8.366;2022-08-21T07:57:03;33.17;;;31.73;;
33066;SDS011;19428;49.024;8.366;2022-08-21T07:59:29;5.28;;;5.18;;
33066;SDS011;19428;49.024;8.366;2022-08-21T08:01:54;4.90;;;4.80;;
33066;SDS011;19428;49.024;8.366;2022-08-21T08:04:21;5.22;;;5.13;;
33066;SDS011;19428;49.024;8.366;2022-08-21T08:06:47;4.25;;;4.15;;
33066;SDS011;19428;49.024;8.366;2022-08-21T08:09:12;4.75;;;4.65;;
33066;SDS011;19428;49.024;8.366;2022-08-21T08:11:38;4.60;;;4.50;;
33066;SDS011;19428;49.024;8.366;2022-08-21T08:14:08;3.70;;;3.60;;
33066;SDS011;19428;49.024;8.366;2022-08-21T08:16:34;3.95;;;3.85;;
33066;SDS011;19428;49.024;8.366;2022-08-21T08:19:00;6.05;;;5.95;;
33066;SDS011;19428;49.024;8.366;2022-08-21T08:21:26;2.65;;;2.65;;
33066;SDS011;19428;49.024;8.366;2022-08-21T08:23:52;3.25;;;3.15;;
33066;SDS011;19428;49.024;8.366;2022-08-21T08:26:18;3.90;;;3.80;;
33066;SDS011;19428;49.024;8.366;2022-08-21T08:28:43;2.65;;;2.65;;
33066;SDS011;19428;49.024;8.366;2022-08-21T08:31:11;2.53;;;2.53;;
33066;SDS011;19428;49.024;8.366;2022-08-21T08:33:37;2.80;;;2.80;;
33066;SDS011;19428;49.024;8.366;2022-08-21T08:36:03;2.45;;;2.45;;
33066;SDS011;19428;49.024;8.366;2022-08-21T08:38:28;3.00;;;3.00;;
33066;SDS011;19428;49.024;8.366;2022-08-21T08:41:02;3.30;;;3.22;;
33066;SDS011;19428;49.024;8.366;2022-08-21T08:43:30;3.25;;;3.25;;
33066;SDS011;19428;49.024;8.366;2022-08-21T08:45:58;3.95;;;3.85;;
33066;SDS011;19428;49.024;8.366;2022-08-21T08:51:02;5.38;;;5.18;;
33066;SDS011;19428;49.024;8.366;2022-08-21T08:53:32;5.07;;;4.88;;
33066;SDS011;19428;49.024;8.366;2022-08-21T08:56:03;4.88;;;4.78;;
33066;SDS011;19428;49.024;8.366;2022-08-21T08:58:30;4.85;;;4.75;;
33066;SDS011;19428;49.024;8.366;2022-08-21T09:00:59;5.45;;;5.35;;
33066;SDS011;19428;49.024;8.366;2022-08-21T09:03:26;5.93;;;5.82;;
33066;SDS011;19428;49.024;8.366;2022-08-21T09:05:55;5.30;;;5.20;;
33066;SDS011;19428;49.024;8.366;2022-08-21T09:08:46;5.38;;;5.28;;
33066;SDS011;19428;49.024;8.366;2022-08-21T09:11:25;5.80;;;5.70;;
33066;SDS011;19428;49.024;8.366;2022-08-21T09:14:17;5.32;;;5.22;;
33066;SDS011;19428;49.024;8.366;2022-08-21T09:25:03;5.32;;;5.22;;
33066;SDS011;19428;49.024;8.366;2022-08-21T09:27:46;5.20;;;5.10;;
33066;SDS011;19428;49.024;8.366;2022-08-21T09:30:11;9.38;;;7.30;;
33066;SDS011;19428;49.024;8.366;2022-08-21T09:32:38;5.53;;;5.43;;
33066;SDS011;19428;49.024;8.366;2022-08-21T09:37:49;4.85;;;4.75;;
33066;SDS011;19428;49.024;8.366;2022-08-21T09:42:58;5.03;;;4.93;;
33066;SDS011;19428;49.024;8.366;2022-08-21T09:45:28;5.05;;;4.95;;
33066;SDS011;19428;49.024;8.366;2022-08-21T09:47:55;5.20;;;5.10;;
33066;SDS011;19428;49.024;8.366;2022-08-21T09:50:22;4.50;;;4.40;;
33066;SDS011;19428;49.024;8.366;2022-08-21T09:52:53;4.82;;;4.72;;
33066;SDS011;19428;49.024;8.366;2022-08-21T09:55:23;4.65;;;4.55;;
33066;SDS011;19428;49.024;8.366;2022-08-21T09:58:13;3.88;;;3.78;;
33066;SDS011;19428;49.024;8.366;2022-08-21T10:00:40;4.32;;;4.22;;
33066;SDS011;19428;49.024;8.366;2022-08-21T10:05:36;3.53;;;3.45;;
33066;SDS011;19428;49.024;8.366;2022-08-21T10:08:03;3.10;;;3.10;;
33066;SDS011;19428;49.024;8.366;2022-08-21T10:10:31;3.60;;;3.50;;
33066;SDS011;19428;49.024;8.366;2022-08-21T10:13:19;2.80;;;2.80;;
33066;SDS011;19428;49.024;8.366;2022-08-21T10:16:18;23.55;;;4.10;;
33066;SDS011;19428;49.024;8.366;2022-08-21T10:30:39;1.40;;;1.40;;
33066;SDS011;19428;49.024;8.366;2022-08-21T10:33:10;1.65;;;1.65;;
33066;SDS011;19428;49.024;8.366;2022-08-21T10:35:53;1.40;;;1.40;;
33066;SDS011;19428;49.024;8.366;2022-08-21T10:44:09;1.30;;;1.30;;
33066;SDS011;19428;49.024;8.366;2022-08-21T10:46:54;1.20;;;1.20;;
33066;SDS011;19428;49.024;8.366;2022-08-21T10:49:39;1.17;;;1.17;;
33066;SDS011;19428;49.024;8.366;2022-08-21T10:55:24;1.30;;;1.30;;
33066;SDS011;19428;49.024;8.366;2022-08-21T10:57:59;1.25;;;1.25;;
33066;SDS011;19428;49.024;8.366;2022-08-21T11:03:14;1.20;;;1.20;;
33066;SDS011;19428;49.024;8.366;2022-08-21T11:05:51;1.58;;;1.58;;
33066;SDS011;19428;49.024;8.366;2022-08-21T11:08:32;1.00;;;1.00;;
33066;SDS011;19428;49.024;8.366;2022-08-21T11:13:50;0.95;;;0.95;;
33066;SDS011;19428;49.024;8.366;2022-08-21T11:21:48;0.70;;;0.70;;
33066;SDS011;19428;49.024;8.366;2022-08-21T11:26:54;0.50;;;0.50;;
33066;SDS011;19428;49.024;8.366;2022-08-21T11:29:33;0.60;;;0.60;;
33066;SDS011;19428;49.024;8.366;2022-08-21T11:32:05;0.60;;;0.60;;
33066;SDS011;19428;49.024;8.366;2022-08-21T11:34:39;0.50;;;0.50;;
33066;SDS011;19428;49.024;8.366;2022-08-21T11:40:09;0.40;;;0.40;;
33066;SDS011;19428;49.024;8.366;2022-08-21T11:48:32;0.40;;;0.40;;
33066;SDS011;19428;49.024;8.366;2022-08-21T11:51:22;0.60;;;0.60;;
33066;SDS011;19428;49.024;8.366;2022-08-21T11:54:21;0.50;;;0.50;;
33066;SDS011;19428;49.024;8.366;2022-08-21T11:57:02;0.40;;;0.40;;
33066;SDS011;19428;49.024;8.366;2022-08-21T12:02:06;0.50;;;0.50;;
33066;SDS011;19428;49.024;8.366;2022-08-21T12:04:47;0.50;;;0.50;;
33066;SDS011;19428;49.024;8.366;2022-08-21T12:07:31;1.30;;;1.30;;
33066;SDS011;19428;49.024;8.366;2022-08-21T12:10:00;0.40;;;0.40;;
33066;SDS011;19428;49.024;8.366;2022-08-21T12:15:17;0.40;;;0.40;;
33066;SDS011;19428;49.024;8.366;2022-08-21T12:17:54;0.50;;;0.50;;
33066;SDS011;19428;49.024;8.366;2022-08-21T12:23:14;0.60;;;0.60;;
33066;SDS011;19428;49.024;8.366;2022-08-21T12:28:34;0.90;;;0.90;;
33066;SDS011;19428;49.024;8.366;2022-08-21T12:31:00;0.40;;;0.40;;
33066;SDS011;19428;49.024;8.366;2022-08-21T12:33:28;0.40;;;0.40;;
33066;SDS011;19428;49.024;8.366;2022-08-21T12:36:02;0.50;;;0.50;;
33066;SDS011;19428;49.024;8.366;2022-08-21T12:38:34;0.82;;;0.82;;
33066;SDS011;19428;49.024;8.366;2022-08-21T12:41:11;0.70;;;0.70;;
33066;SDS011;19428;49.024;8.366;2022-08-21T12:43:47;0.57;;;0.57;;
33066;SDS011;19428;49.024;8.366;2022-08-21T12:46:29;0.52;;;0.52;;
33066;SDS011;19428;49.024;8.366;2022-08-21T12:49:01;0.60;;;0.60;;
33066;SDS011;19428;49.024;8.366;2022-08-21T12:51:36;0.63;;;0.63;;
33066;SDS011;19428;49.024;8.366;2022-08-21T12:54:21;0.70;;;0.70;;
33066;SDS011;19428;49.024;8.366;2022-08-21T12:56:55;0.43;;;0.43;;
33066;SDS011;19428;49.024;8.366;2022-08-21T12:59:30;0.70;;;0.70;;
33066;SDS011;19428;49.024;8.366;2022-08-21T13:01:58;0.32;;;0.32;;
33066;SDS011;19428;49.024;8.366;2022-08-21T13:04:35;0.30;;;0.30;;
33066;SDS011;19428;49.024;8.366;2022-08-21T13:07:05;0.30;;;0.30;;
33066;SDS011;19428;49.024;8.366;2022-08-21T13:09:36;0.40;;;0.40;;
33066;SDS011;19428;49.024;8.366;2022-08-21T13:12:11;0.40;;;0.40;;
33066;SDS011;19428;49.024;8.366;2022-08-21T13:14:38;0.35;;;0.35;;
33066;SDS011;19428;49.024;8.366;2022-08-21T13:17:06;0.30;;;0.30;;
33066;SDS011;19428;49.024;8.366;2022-08-21T13:19:33;0.40;;;0.40;;
33066;SDS011;19428;49.024;8.366;2022-08-21T13:21:59;0.55;;;0.55;;
33066;SDS011;19428;49.024;8.366;2022-08-21T13:24:35;0.40;;;0.40;;
33066;SDS011;19428;49.024;8.366;2022-08-21T13:27:02;1.88;;;1.25;;
33066;SDS011;19428;49.024;8.366;2022-08-21T13:29:30;0.30;;;0.30;;
33066;SDS011;19428;49.024;8.366;2022-08-21T13:32:03;0.50;;;0.50;;
33066;SDS011;19428;49.024;8.366;2022-08-21T13:34:33;0.40;;;0.40;;
33066;SDS011;19428;49.024;8.366;2022-08-21T13:37:02;0.40;;;0.40;;
33066;SDS011;19428;49.024;8.366;2022-08-21T13:39:30;0.30;;;0.30;;
33066;SDS011;19428;49.024;8.366;2022-08-21T13:41:58;0.55;;;0.55;;
33066;SDS011;19428;49.024;8.366;2022-08-21T13:44:35;0.30;;;0.30;;
33066;SDS011;19428;49.024;8.366;2022-08-21T13:47:05;0.40;;;0.40;;
33066;SDS011;19428;49.024;8.366;2022-08-21T13:49:33;0.30;;;0.30;;
33066;SDS011;19428;49.024;8.366;2022-08-21T13:52:04;0.38;;;0.38;;
33066;SDS011;19428;49.024;8.366;2022-08-21T13:54:40;0.60;;;0.60;;
33066;SDS011;19428;49.024;8.366;2022-08-21T13:57:18;0.55;;;0.55;;
33066;SDS011;19428;49.024;8.366;2022-08-21T14:00:09;0.30;;;0.30;;
33066;SDS011;19428;49.024;8.366;2022-08-21T14:02:40;0.40;;;0.40;;
33066;SDS011;19428;49.024;8.366;2022-08-21T14:05:14;0.50;;;0.50;;
33066;SDS011;19428;49.024;8.366;2022-08-21T14:07:44;2.33;;;1.45;;
33066;SDS011;19428;49.024;8.366;2022-08-21T14:10:15;0.40;;;0.40;;
33066;SDS011;19428;49.024;8.366;2022-08-21T14:15:27;0.40;;;0.40;;
33066;SDS011;19428;49.024;8.366;2022-08-21T14:18:00;0.40;;;0.40;;
33066;SDS011;19428;49.024;8.366;2022-08-21T14:20:39;0.35;;;0.35;;
33066;SDS011;19428;49.024;8.366;2022-08-21T14:23:05;0.40;;;0.40;;
33066;SDS011;19428;49.024;8.366;2022-08-21T14:25:37;0.68;;;0.68;;
33066;SDS011;19428;49.024;8.366;2022-08-21T14:30:52;0.70;;;0.70;;
33066;SDS011;19428;49.024;8.366;2022-08-21T14:33:29;0.95;;;0.95;;
33066;SDS011;19428;49.024;8.366;2022-08-21T14:35:57;0.32;;;0.32;;
33066;SDS011;19428;49.024;8.366;2022-08-21T14:38:25;0.30;;;0.30;;
33066;SDS011;19428;49.024;8.366;2022-08-21T14:40:53;0.30;;;0.30;;
33066;SDS011;19428;49.024;8.366;2022-08-21T14:43:25;0.77;;;0.77;;
33066;SDS011;19428;49.024;8.366;2022-08-21T14:45:52;0.30;;;0.30;;
33066;SDS011;19428;49.024;8.366;2022-08-21T14:48:19;2.75;;;2.20;;
33066;SDS011;19428;49.024;8.366;2022-08-21T14:50:44;0.40;;;0.40;;
33066;SDS011;19428;49.024;8.366;2022-08-21T14:53:10;0.30;;;0.30;;
33066;SDS011;19428;49.024;8.366;2022-08-21T14:55:36;0.43;;;0.43;;
33066;SDS011;19428;49.024;8.366;2022-08-21T14:58:22;0.50;;;0.50;;
33066;SDS011;19428;49.024;8.366;2022-08-21T15:00:49;0.50;;;0.50;;
33066;SDS011;19428;49.024;8.366;2022-08-21T15:03:17;0.60;;;0.60;;
33066;SDS011;19428;49.024;8.366;2022-08-21T15:05:43;0.75;;;0.75;;
33066;SDS011;19428;49.024;8.366;2022-08-21T15:08:09;0.40;;;0.40;;
33066;SDS011;19428;49.024;8.366;2022-08-21T15:10:35;0.30;;;0.30;;
33066;SDS011;19428;49.024;8.366;2022-08-21T15:13:01;0.45;;;0.45;;
33066;SDS011;19428;49.024;8.366;2022-08-21T15:15:29;0.40;;;0.40;;
33066;SDS011;19428;49.024;8.366;2022-08-21T15:18:00;0.30;;;0.30;;
33066;SDS011;19428;49.024;8.366;2022-08-21T15:20:26;0.40;;;0.40;;
33066;SDS011;19428;49.024;8.366;2022-08-21T15:22:51;0.32;;;0.32;;
33066;SDS011;19428;49.024;8.366;2022-08-21T15:25:17;0.30;;;0.30;;
33066;SDS011;19428;49.024;8.366;2022-08-21T15:27:43;0.43;;;0.43;;
33066;SDS011;19428;49.024;8.366;2022-08-21T15:30:08;0.30;;;0.30;;
33066;SDS011;19428;49.024;8.366;2022-08-21T15:32:34;0.30;;;0.30;;
33066;SDS011;19428;49.024;8.366;2022-08-21T15:35:00;0.30;;;0.30;;
33066;SDS011;19428;49.024;8.366;2022-08-21T15:37:27;5.28;;;1.38;;
33066;SDS011;19428;49.024;8.366;2022-08-21T15:39:52;0.30;;;0.30;;
33066;SDS011;19428;49.024;8.366;2022-08-21T15:42:19;0.35;;;0.35;;
33066;SDS011;19428;49.024;8.366;2022-08-21T15:44:46;0.30;;;0.30;;
33066;SDS011;19428;49.024;8.366;2022-08-21T15:47:15;0.52;;;0.52;;
33066;SDS011;19428;49.024;8.366;2022-08-21T15:49:44;0.32;;;0.32;;
33066;SDS011;19428;49.024;8.366;2022-08-21T15:52:17;0.75;;;0.75;;
33066;SDS011;19428;49.024;8.366;2022-08-21T15:54:45;0.40;;;0.40;;
33066;SDS011;19428;49.024;8.366;2022-08-21T15:57:16;0.40;;;0.40;;
33066;SDS011;19428;49.024;8.366;2022-08-21T15:59:45;0.40;;;0.40;;
33066;SDS011;19428;49.024;8.366;2022-08-21T16:02:15;0.40;;;0.40;;
33066;SDS011;19428;49.024;8.366;2022-08-21T16:04:47;0.40;;;0.40;;
33066;SDS011;19428;49.024;8.366;2022-08-21T16:07:12;1.50;;;1.40;;
33066;SDS011;19428;49.024;8.366;2022-08-21T16:09:38;0.30;;;0.30;;
33066;SDS011;19428;49.024;8.366;2022-08-21T16:12:04;0.50;;;0.50;;
33066;SDS011;19428;49.024;8.366;2022-08-21T16:14:31;0.30;;;0.30;;